sensor_id;sensor_type;location;lat;lon;timestamp;temperature;humidity
46758;DHT22;32509;47.750;-3.396;2023-08-17T00:01:56;19.20;99.90
46758;DHT22;32509;47.750;-3.396;2023-08-17T00:04:22;19.20;99.90
46758;DHT22;32509;47.750;-3.396;2023-08-17T00:06:47;19.20;99.90
46758;DHT22;32509;47.750;-3.396;2023-08-17T00:09:13;19.20;99.90
46758;DHT22;32509;47.750;-3.396;2023-08-17T00:11:39;19.20;99.90
46758;DHT22;32509;47.750;-3.396;2023-08-17T00:14:05;19.20;99.90
46758;DHT22;32509;47.750;-3.396;2023-08-17T00:16:31;19.20;99.90
46758;DHT22;32509;47.750;-3.396;2023-08-17T00:18:57;19.20;99.90
46758;DHT22;32509;47.750;-3.396;2023-08-17T00:21:23;19.20;99.90
46758;DHT22;32509;47.750;-3.396;2023-08-17T00:23:49;19.20;99.90
46758;DHT22;32509;47.750;-3.396;2023-08-17T00:26:15;19.20;99.90
46758;DHT22;32509;47.750;-3.396;2023-08-17T00:28:41;19.10;99.90
46758;DHT22;32509;47.750;-3.396;2023-08-17T00:31:06;19.10;99.90
46758;DHT22;32509;47.750;-3.396;2023-08-17T00:33:32;19.20;99.90
46758;DHT22;32509;47.750;-3.396;2023-08-17T00:35:58;19.10;99.90
46758;DHT22;32509;47.750;-3.396;2023-08-17T00:38:24;19.20;99.90
46758;DHT22;32509;47.750;-3.396;2023-08-17T00:40:50;19.10;99.90
46758;DHT22;32509;47.750;-3.396;2023-08-17T00:43:16;19.10;99.90
46758;DHT22;32509;47.750;-3.396;2023-08-17T00:45:42;19.20;99.90
46758;DHT22;32509;47.750;-3.396;2023-08-17T00:48:10;19.10;99.90
46758;DHT22;32509;47.750;-3.396;2023-08-17T00:50:36;19.20;99.90
46758;DHT22;32509;47.750;-3.396;2023-08-17T00:53:03;19.10;99.90
46758;DHT22;32509;47.750;-3.396;2023-08-17T00:55:29;19.10;99.90
46758;DHT22;32509;47.750;-3.396;2023-08-17T00:57:56;19.10;99.90
46758;DHT22;32509;47.750;-3.396;2023-08-17T01:00:24;19.10;99.90
46758;DHT22;32509;47.750;-3.396;2023-08-17T01:02:53;19.10;99.90
46758;DHT22;32509;47.750;-3.396;2023-08-17T01:05:20;19.10;99.90
46758;DHT22;32509;47.750;-3.396;2023-08-17T01:07:46;19.10;99.90
46758;DHT22;32509;47.750;-3.396;2023-08-17T01:10:11;19.10;99.90
46758;DHT22;32509;47.750;-3.396;2023-08-17T01:12:53;19.10;99.90
46758;DHT22;32509;47.750;-3.396;2023-08-17T01:15:36;19.00;99.90
46758;DHT22;32509;47.750;-3.396;2023-08-17T01:18:31;19.10;99.90
46758;DHT22;32509;47.750;-3.396;2023-08-17T01:20:58;19.00;99.90
46758;DHT22;32509;47.750;-3.396;2023-08-17T01:23:25;19.00;99.90
46758;DHT22;32509;47.750;-3.396;2023-08-17T01:25:52;19.00;99.90
46758;DHT22;32509;47.750;-3.396;2023-08-17T01:28:19;19.00;99.90
46758;DHT22;32509;47.750;-3.396;2023-08-17T01:31:05;19.00;99.90
46758;DHT22;32509;47.750;-3.396;2023-08-17T01:33:40;19.00;99.90
46758;DHT22;32509;47.750;-3.396;2023-08-17T01:36:17;19.00;99.90
46758;DHT22;32509;47.750;-3.396;2023-08-17T01:38:45;19.00;99.90
46758;DHT22;32509;47.750;-3.396;2023-08-17T01:41:12;19.00;99.90
46758;DHT22;32509;47.750;-3.396;2023-08-17T01:43:43;18.90;99.90
46758;DHT22;32509;47.750;-3.396;2023-08-17T01:46:14;19.00;99.90
46758;DHT22;32509;47.750;-3.396;2023-08-17T01:48:44;19.00;99.90
46758;DHT22;32509;47.750;-3.396;2023-08-17T01:51:12;18.90;99.90
46758;DHT22;32509;47.750;-3.396;2023-08-17T01:53:38;19.00;99.90
46758;DHT22;32509;47.750;-3.396;2023-08-17T01:56:03;19.00;99.90
46758;DHT22;32509;47.750;-3.396;2023-08-17T01:58:29;19.00;99.90
46758;DHT22;32509;47.750;-3.396;2023-08-17T02:00:55;19.00;99.90
46758;DHT22;32509;47.750;-3.396;2023-08-17T02:03:21;19.00;99.90
46758;DHT22;32509;47.750;-3.396;2023-08-17T02:05:47;18.90;99.90
46758;DHT22;32509;47.750;-3.396;2023-08-17T02:08:13;18.90;99.90
46758;DHT22;32509;47.750;-3.396;2023-08-17T02:10:39;18.90;99.90
46758;DHT22;32509;47.750;-3.396;2023-08-17T02:13:04;18.90;99.90
46758;DHT22;32509;47.750;-3.396;2023-08-17T02:15:30;18.90;99.90
46758;DHT22;32509;47.750;-3.396;2023-08-17T02:18:01;18.90;99.90
46758;DHT22;32509;47.750;-3.396;2023-08-17T02:20:26;18.90;99.90
46758;DHT22;32509;47.750;-3.396;2023-08-17T02:22:52;18.90;99.90
46758;DHT22;32509;47.750;-3.396;2023-08-17T02:25:18;18.90;99.90
46758;DHT22;32509;47.750;-3.396;2023-08-17T02:27:43;18.90;99.90
46758;DHT22;32509;47.750;-3.396;2023-08-17T02:30:10;18.90;99.90
46758;DHT22;32509;47.750;-3.396;2023-08-17T02:32:36;18.80;99.90
46758;DHT22;32509;47.750;-3.396;2023-08-17T02:35:02;18.90;99.90
46758;DHT22;32509;47.750;-3.396;2023-08-17T02:37:27;18.90;99.90
46758;DHT22;32509;47.750;-3.396;2023-08-17T02:39:53;18.80;99.90
46758;DHT22;32509;47.750;-3.396;2023-08-17T02:42:19;18.80;99.90
46758;DHT22;32509;47.750;-3.396;2023-08-17T02:44:45;18.90;99.90
46758;DHT22;32509;47.750;-3.396;2023-08-17T02:47:11;18.90;99.90
46758;DHT22;32509;47.750;-3.396;2023-08-17T02:49:36;18.90;99.90
46758;DHT22;32509;47.750;-3.396;2023-08-17T02:52:02;18.80;99.90
46758;DHT22;32509;47.750;-3.396;2023-08-17T02:54:28;18.80;99.90
46758;DHT22;32509;47.750;-3.396;2023-08-17T02:56:53;18.80;99.90
46758;DHT22;32509;47.750;-3.396;2023-08-17T02:59:19;18.90;99.90
46758;DHT22;32509;47.750;-3.396;2023-08-17T03:01:45;18.80;99.90
46758;DHT22;32509;47.750;-3.396;2023-08-17T03:04:11;18.80;99.90
46758;DHT22;32509;47.750;-3.396;2023-08-17T03:06:37;18.80;99.90
46758;DHT22;32509;47.750;-3.396;2023-08-17T03:09:03;18.80;99.90
46758;DHT22;32509;47.750;-3.396;2023-08-17T03:11:28;18.80;99.90
46758;DHT22;32509;47.750;-3.396;2023-08-17T03:13:54;18.80;99.90
46758;DHT22;32509;47.750;-3.396;2023-08-17T03:16:26;18.80;99.90
46758;DHT22;32509;47.750;-3.396;2023-08-17T03:18:52;18.80;99.90
46758;DHT22;32509;47.750;-3.396;2023-08-17T03:21:18;18.80;99.90
46758;DHT22;32509;47.750;-3.396;2023-08-17T03:23:45;18.80;99.90
46758;DHT22;32509;47.750;-3.396;2023-08-17T03:26:11;18.80;99.90
46758;DHT22;32509;47.750;-3.396;2023-08-17T03:28:36;18.80;99.90
46758;DHT22;32509;47.750;-3.396;2023-08-17T03:31:02;18.80;99.90
46758;DHT22;32509;47.750;-3.396;2023-08-17T03:33:28;18.80;99.90
46758;DHT22;32509;47.750;-3.396;2023-08-17T03:35:54;18.80;99.90
46758;DHT22;32509;47.750;-3.396;2023-08-17T03:38:20;18.80;99.90
46758;DHT22;32509;47.750;-3.396;2023-08-17T03:40:47;18.80;99.90
46758;DHT22;32509;47.750;-3.396;2023-08-17T03:43:13;18.80;99.90
46758;DHT22;32509;47.750;-3.396;2023-08-17T03:45:41;18.70;99.90
46758;DHT22;32509;47.750;-3.396;2023-08-17T03:48:06;18.80;99.90
46758;DHT22;32509;47.750;-3.396;2023-08-17T03:50:33;18.80;99.90
46758;DHT22;32509;47.750;-3.396;2023-08-17T03:52:58;18.70;99.90
46758;DHT22;32509;47.750;-3.396;2023-08-17T03:55:24;18.70;99.90
46758;DHT22;32509;47.750;-3.396;2023-08-17T03:57:50;18.70;99.90
46758;DHT22;32509;47.750;-3.396;2023-08-17T04:00:16;18.80;99.90
46758;DHT22;32509;47.750;-3.396;2023-08-17T04:02:44;18.70;99.90
46758;DHT22;32509;47.750;-3.396;2023-08-17T04:05:13;18.70;99.90
46758;DHT22;32509;47.750;-3.396;2023-08-17T04:07:38;18.70;99.90
46758;DHT22;32509;47.750;-3.396;2023-08-17T04:10:08;18.70;99.90
46758;DHT22;32509;47.750;-3.396;2023-08-17T04:12:34;18.70;99.90
46758;DHT22;32509;47.750;-3.396;2023-08-17T04:15:00;18.70;99.90
46758;DHT22;32509;47.750;-3.396;2023-08-17T04:17:26;18.70;99.90
46758;DHT22;32509;47.750;-3.396;2023-08-17T04:19:52;18.70;99.90
46758;DHT22;32509;47.750;-3.396;2023-08-17T04:22:18;18.70;99.90
46758;DHT22;32509;47.750;-3.396;2023-08-17T04:24:44;18.70;99.90
46758;DHT22;32509;47.750;-3.396;2023-08-17T04:27:10;18.70;99.90
46758;DHT22;32509;47.750;-3.396;2023-08-17T04:29:37;18.70;99.90
46758;DHT22;32509;47.750;-3.396;2023-08-17T04:32:03;18.70;99.90
46758;DHT22;32509;47.750;-3.396;2023-08-17T04:34:29;18.60;99.90
46758;DHT22;32509;47.750;-3.396;2023-08-17T04:36:55;18.60;99.90
46758;DHT22;32509;47.750;-3.396;2023-08-17T04:39:21;18.60;99.90
46758;DHT22;32509;47.750;-3.396;2023-08-17T04:41:47;18.60;99.90
46758;DHT22;32509;47.750;-3.396;2023-08-17T04:44:13;18.70;99.90
46758;DHT22;32509;47.750;-3.396;2023-08-17T04:46:39;18.60;99.90
46758;DHT22;32509;47.750;-3.396;2023-08-17T04:49:04;18.60;99.90
46758;DHT22;32509;47.750;-3.396;2023-08-17T04:51:31;18.60;99.90
46758;DHT22;32509;47.750;-3.396;2023-08-17T04:53:57;18.60;99.90
46758;DHT22;32509;47.750;-3.396;2023-08-17T04:56:23;18.70;99.90
46758;DHT22;32509;47.750;-3.396;2023-08-17T04:58:49;18.60;99.90
46758;DHT22;32509;47.750;-3.396;2023-08-17T05:01:15;18.70;99.90
46758;DHT22;32509;47.750;-3.396;2023-08-17T05:03:41;18.60;99.90
46758;DHT22;32509;47.750;-3.396;2023-08-17T05:06:06;18.60;99.90
46758;DHT22;32509;47.750;-3.396;2023-08-17T05:08:32;18.70;99.90
46758;DHT22;32509;47.750;-3.396;2023-08-17T05:10:58;18.60;99.90
46758;DHT22;32509;47.750;-3.396;2023-08-17T05:13:23;18.60;99.90
46758;DHT22;32509;47.750;-3.396;2023-08-17T05:15:49;18.60;99.90
46758;DHT22;32509;47.750;-3.396;2023-08-17T05:18:15;18.60;99.90
46758;DHT22;32509;47.750;-3.396;2023-08-17T05:20:41;18.70;99.90
46758;DHT22;32509;47.750;-3.396;2023-08-17T05:23:06;18.70;99.90
46758;DHT22;32509;47.750;-3.396;2023-08-17T05:25:33;18.70;99.90
46758;DHT22;32509;47.750;-3.396;2023-08-17T05:27:59;18.60;99.90
46758;DHT22;32509;47.750;-3.396;2023-08-17T05:30:24;18.70;99.90
46758;DHT22;32509;47.750;-3.396;2023-08-17T05:32:50;18.70;99.90
46758;DHT22;32509;47.750;-3.396;2023-08-17T05:35:16;18.60;99.90
46758;DHT22;32509;47.750;-3.396;2023-08-17T05:37:42;18.60;99.90
46758;DHT22;32509;47.750;-3.396;2023-08-17T05:40:08;18.60;99.90
46758;DHT22;32509;47.750;-3.396;2023-08-17T05:42:37;18.60;99.90
46758;DHT22;32509;47.750;-3.396;2023-08-17T05:45:03;18.70;99.90
46758;DHT22;32509;47.750;-3.396;2023-08-17T05:47:28;18.70;99.90
46758;DHT22;32509;47.750;-3.396;2023-08-17T05:49:54;18.70;99.90
46758;DHT22;32509;47.750;-3.396;2023-08-17T05:52:20;18.70;99.90
46758;DHT22;32509;47.750;-3.396;2023-08-17T05:54:46;18.60;99.90
46758;DHT22;32509;47.750;-3.396;2023-08-17T05:57:12;18.60;99.90
46758;DHT22;32509;47.750;-3.396;2023-08-17T05:59:38;18.70;99.90
46758;DHT22;32509;47.750;-3.396;2023-08-17T06:02:03;18.70;99.90
46758;DHT22;32509;47.750;-3.396;2023-08-17T06:04:38;18.70;99.90
46758;DHT22;32509;47.750;-3.396;2023-08-17T06:07:04;18.70;99.90
46758;DHT22;32509;47.750;-3.396;2023-08-17T06:09:30;18.70;99.90
46758;DHT22;32509;47.750;-3.396;2023-08-17T06:11:55;18.70;99.90
46758;DHT22;32509;47.750;-3.396;2023-08-17T06:14:21;18.70;99.90
46758;DHT22;32509;47.750;-3.396;2023-08-17T06:16:47;18.70;99.90
46758;DHT22;32509;47.750;-3.396;2023-08-17T06:19:13;18.70;99.90
46758;DHT22;32509;47.750;-3.396;2023-08-17T06:21:39;18.70;99.90
46758;DHT22;32509;47.750;-3.396;2023-08-17T06:24:05;18.70;99.90
46758;DHT22;32509;47.750;-3.396;2023-08-17T06:26:31;18.70;99.90
46758;DHT22;32509;47.750;-3.396;2023-08-17T06:28:57;18.70;99.90
46758;DHT22;32509;47.750;-3.396;2023-08-17T06:31:23;18.70;99.90
46758;DHT22;32509;47.750;-3.396;2023-08-17T06:33:53;18.70;99.90
46758;DHT22;32509;47.750;-3.396;2023-08-17T06:36:19;18.70;99.90
46758;DHT22;32509;47.750;-3.396;2023-08-17T06:38:45;18.70;99.90
46758;DHT22;32509;47.750;-3.396;2023-08-17T06:41:10;18.70;99.90
46758;DHT22;32509;47.750;-3.396;2023-08-17T06:43:36;18.70;99.90
46758;DHT22;32509;47.750;-3.396;2023-08-17T06:46:02;18.80;99.90
46758;DHT22;32509;47.750;-3.396;2023-08-17T06:48:28;18.70;99.90
46758;DHT22;32509;47.750;-3.396;2023-08-17T06:50:54;18.80;99.90
46758;DHT22;32509;47.750;-3.396;2023-08-17T06:53:20;18.80;99.90
46758;DHT22;32509;47.750;-3.396;2023-08-17T06:55:45;18.80;99.90
46758;DHT22;32509;47.750;-3.396;2023-08-17T06:58:11;18.80;99.90
46758;DHT22;32509;47.750;-3.396;2023-08-17T07:00:37;18.80;99.90
46758;DHT22;32509;47.750;-3.396;2023-08-17T07:03:06;18.80;99.90
46758;DHT22;32509;47.750;-3.396;2023-08-17T07:05:32;18.90;99.90
46758;DHT22;32509;47.750;-3.396;2023-08-17T07:07:58;18.90;99.90
46758;DHT22;32509;47.750;-3.396;2023-08-17T07:10:25;18.90;99.90
46758;DHT22;32509;47.750;-3.396;2023-08-17T07:12:50;18.90;99.90
46758;DHT22;32509;47.750;-3.396;2023-08-17T07:15:16;19.00;99.90
46758;DHT22;32509;47.750;-3.396;2023-08-17T07:17:42;19.00;99.90
46758;DHT22;32509;47.750;-3.396;2023-08-17T07:20:08;19.00;99.90
46758;DHT22;32509;47.750;-3.396;2023-08-17T07:22:35;19.00;99.90
46758;DHT22;32509;47.750;-3.396;2023-08-17T07:25:01;19.00;99.90
46758;DHT22;32509;47.750;-3.396;2023-08-17T07:27:26;19.10;99.90
46758;DHT22;32509;47.750;-3.396;2023-08-17T07:29:52;19.10;99.90
46758;DHT22;32509;47.750;-3.396;2023-08-17T07:32:18;19.10;99.90
46758;DHT22;32509;47.750;-3.396;2023-08-17T07:34:44;19.10;99.90
46758;DHT22;32509;47.750;-3.396;2023-08-17T07:37:10;19.20;99.90
46758;DHT22;32509;47.750;-3.396;2023-08-17T07:39:36;19.20;99.90
46758;DHT22;32509;47.750;-3.396;2023-08-17T07:42:01;19.20;99.90
46758;DHT22;32509;47.750;-3.396;2023-08-17T07:44:27;19.20;99.90
46758;DHT22;32509;47.750;-3.396;2023-08-17T07:46:54;19.20;99.90
46758;DHT22;32509;47.750;-3.396;2023-08-17T07:49:20;19.30;99.90
46758;DHT22;32509;47.750;-3.396;2023-08-17T07:51:48;19.30;99.90
46758;DHT22;32509;47.750;-3.396;2023-08-17T07:54:14;19.40;99.90
46758;DHT22;32509;47.750;-3.396;2023-08-17T07:56:40;19.40;99.90
46758;DHT22;32509;47.750;-3.396;2023-08-17T07:59:06;19.40;99.90
46758;DHT22;32509;47.750;-3.396;2023-08-17T08:01:31;19.50;99.90
46758;DHT22;32509;47.750;-3.396;2023-08-17T08:03:57;19.50;99.90
46758;DHT22;32509;47.750;-3.396;2023-08-17T08:06:23;19.50;99.90
46758;DHT22;32509;47.750;-3.396;2023-08-17T08:08:49;19.50;99.90
46758;DHT22;32509;47.750;-3.396;2023-08-17T08:11:15;19.60;99.90
46758;DHT22;32509;47.750;-3.396;2023-08-17T08:13:41;19.60;99.90
46758;DHT22;32509;47.750;-3.396;2023-08-17T08:16:06;19.70;99.90
46758;DHT22;32509;47.750;-3.396;2023-08-17T08:18:32;19.70;99.90
46758;DHT22;32509;47.750;-3.396;2023-08-17T08:20:58;19.70;99.90
46758;DHT22;32509;47.750;-3.396;2023-08-17T08:23:24;19.70;99.90
46758;DHT22;32509;47.750;-3.396;2023-08-17T08:25:49;19.80;99.90
46758;DHT22;32509;47.750;-3.396;2023-08-17T08:28:15;19.90;99.90
46758;DHT22;32509;47.750;-3.396;2023-08-17T08:30:41;19.90;99.90
46758;DHT22;32509;47.750;-3.396;2023-08-17T08:33:07;20.00;99.90
46758;DHT22;32509;47.750;-3.396;2023-08-17T08:35:32;20.00;99.90
46758;DHT22;32509;47.750;-3.396;2023-08-17T08:38:01;20.00;99.90
46758;DHT22;32509;47.750;-3.396;2023-08-17T08:40:28;20.10;99.90
46758;DHT22;32509;47.750;-3.396;2023-08-17T08:42:57;20.10;99.90
46758;DHT22;32509;47.750;-3.396;2023-08-17T08:45:23;20.10;99.90
46758;DHT22;32509;47.750;-3.396;2023-08-17T08:47:51;20.10;99.90
46758;DHT22;32509;47.750;-3.396;2023-08-17T08:50:19;20.10;99.90
46758;DHT22;32509;47.750;-3.396;2023-08-17T08:52:58;20.10;99.90
46758;DHT22;32509;47.750;-3.396;2023-08-17T08:55:27;20.10;99.90
46758;DHT22;32509;47.750;-3.396;2023-08-17T08:57:54;20.20;99.90
46758;DHT22;32509;47.750;-3.396;2023-08-17T09:00:20;20.30;99.90
46758;DHT22;32509;47.750;-3.396;2023-08-17T09:02:46;20.30;99.90
46758;DHT22;32509;47.750;-3.396;2023-08-17T09:05:13;20.30;99.90
46758;DHT22;32509;47.750;-3.396;2023-08-17T09:07:39;20.40;99.90
46758;DHT22;32509;47.750;-3.396;2023-08-17T09:10:06;20.40;99.90
46758;DHT22;32509;47.750;-3.396;2023-08-17T09:12:33;20.40;99.90
46758;DHT22;32509;47.750;-3.396;2023-08-17T09:14:58;20.40;99.90
46758;DHT22;32509;47.750;-3.396;2023-08-17T09:17:27;20.40;99.90
46758;DHT22;32509;47.750;-3.396;2023-08-17T09:19:54;20.40;99.90
46758;DHT22;32509;47.750;-3.396;2023-08-17T09:22:24;20.40;99.90
46758;DHT22;32509;47.750;-3.396;2023-08-17T09:24:50;20.50;99.90
46758;DHT22;32509;47.750;-3.396;2023-08-17T09:27:16;20.60;99.90
46758;DHT22;32509;47.750;-3.396;2023-08-17T09:29:45;20.60;99.90
46758;DHT22;32509;47.750;-3.396;2023-08-17T09:32:14;20.70;99.90
46758;DHT22;32509;47.750;-3.396;2023-08-17T09:34:43;20.70;99.90
46758;DHT22;32509;47.750;-3.396;2023-08-17T09:37:09;20.80;99.90
46758;DHT22;32509;47.750;-3.396;2023-08-17T09:39:37;20.80;99.90
46758;DHT22;32509;47.750;-3.396;2023-08-17T09:42:03;20.80;99.90
46758;DHT22;32509;47.750;-3.396;2023-08-17T09:44:28;20.90;99.90
46758;DHT22;32509;47.750;-3.396;2023-08-17T09:46:58;21.00;99.90
46758;DHT22;32509;47.750;-3.396;2023-08-17T09:49:24;21.00;99.90
46758;DHT22;32509;47.750;-3.396;2023-08-17T09:51:50;21.00;99.90
46758;DHT22;32509;47.750;-3.396;2023-08-17T09:54:24;21.00;99.90
46758;DHT22;32509;47.750;-3.396;2023-08-17T09:56:53;21.00;99.90
46758;DHT22;32509;47.750;-3.396;2023-08-17T09:59:20;21.00;99.90
46758;DHT22;32509;47.750;-3.396;2023-08-17T10:01:50;21.10;99.90
46758;DHT22;32509;47.750;-3.396;2023-08-17T10:04:21;21.10;99.90
46758;DHT22;32509;47.750;-3.396;2023-08-17T10:07:00;21.20;99.90
46758;DHT22;32509;47.750;-3.396;2023-08-17T10:09:36;21.20;99.90
46758;DHT22;32509;47.750;-3.396;2023-08-17T10:12:10;21.20;99.90
46758;DHT22;32509;47.750;-3.396;2023-08-17T10:14:39;21.30;99.90
46758;DHT22;32509;47.750;-3.396;2023-08-17T10:17:09;21.40;99.90
46758;DHT22;32509;47.750;-3.396;2023-08-17T10:22:23;21.40;99.90
46758;DHT22;32509;47.750;-3.396;2023-08-17T10:24:51;21.50;99.90
46758;DHT22;32509;47.750;-3.396;2023-08-17T10:27:20;21.50;99.90
46758;DHT22;32509;47.750;-3.396;2023-08-17T10:29:47;21.50;99.90
46758;DHT22;32509;47.750;-3.396;2023-08-17T10:32:13;21.60;99.90
46758;DHT22;32509;47.750;-3.396;2023-08-17T10:34:40;21.60;99.90
46758;DHT22;32509;47.750;-3.396;2023-08-17T10:37:07;21.50;99.90
46758;DHT22;32509;47.750;-3.396;2023-08-17T10:39:33;21.50;99.90
46758;DHT22;32509;47.750;-3.396;2023-08-17T10:42:00;21.50;99.90
46758;DHT22;32509;47.750;-3.396;2023-08-17T10:44:47;21.60;99.90
46758;DHT22;32509;47.750;-3.396;2023-08-17T10:47:22;21.70;99.90
46758;DHT22;32509;47.750;-3.396;2023-08-17T10:50:19;21.60;99.90
46758;DHT22;32509;47.750;-3.396;2023-08-17T10:52:36;21.60;99.90
46758;DHT22;32509;47.750;-3.396;2023-08-17T10:55:07;21.60;99.90
46758;DHT22;32509;47.750;-3.396;2023-08-17T10:57:38;21.50;99.90
46758;DHT22;32509;47.750;-3.396;2023-08-17T11:02:34;21.50;99.90
46758;DHT22;32509;47.750;-3.396;2023-08-17T11:05:03;21.60;99.90
46758;DHT22;32509;47.750;-3.396;2023-08-17T11:07:43;21.50;99.90
46758;DHT22;32509;47.750;-3.396;2023-08-17T11:12:44;21.70;99.90
46758;DHT22;32509;47.750;-3.396;2023-08-17T11:15:10;21.70;99.90
46758;DHT22;32509;47.750;-3.396;2023-08-17T11:17:36;21.70;99.90
46758;DHT22;32509;47.750;-3.396;2023-08-17T11:20:03;21.70;99.90
46758;DHT22;32509;47.750;-3.396;2023-08-17T11:22:29;21.80;99.90
46758;DHT22;32509;47.750;-3.396;2023-08-17T11:24:55;21.80;99.90
46758;DHT22;32509;47.750;-3.396;2023-08-17T11:27:22;21.70;99.90
46758;DHT22;32509;47.750;-3.396;2023-08-17T11:29:55;21.70;99.90
46758;DHT22;32509;47.750;-3.396;2023-08-17T11:32:20;21.70;99.90
46758;DHT22;32509;47.750;-3.396;2023-08-17T11:34:46;21.70;99.90
46758;DHT22;32509;47.750;-3.396;2023-08-17T11:37:12;21.80;99.90
46758;DHT22;32509;47.750;-3.396;2023-08-17T11:39:38;21.80;99.90
46758;DHT22;32509;47.750;-3.396;2023-08-17T11:42:04;21.80;99.90
46758;DHT22;32509;47.750;-3.396;2023-08-17T11:44:30;21.90;99.90
46758;DHT22;32509;47.750;-3.396;2023-08-17T11:46:56;21.80;99.90
46758;DHT22;32509;47.750;-3.396;2023-08-17T11:49:22;21.80;99.90
46758;DHT22;32509;47.750;-3.396;2023-08-17T11:51:51;21.90;99.90
46758;DHT22;32509;47.750;-3.396;2023-08-17T11:54:17;22.00;99.90
46758;DHT22;32509;47.750;-3.396;2023-08-17T11:56:42;21.90;99.90
46758;DHT22;32509;47.750;-3.396;2023-08-17T11:59:11;22.00;99.90
46758;DHT22;32509;47.750;-3.396;2023-08-17T12:01:44;22.10;99.90
46758;DHT22;32509;47.750;-3.396;2023-08-17T12:04:10;22.00;99.90
46758;DHT22;32509;47.750;-3.396;2023-08-17T12:06:44;22.00;99.90
46758;DHT22;32509;47.750;-3.396;2023-08-17T12:09:13;22.10;99.90
46758;DHT22;32509;47.750;-3.396;2023-08-17T12:11:40;22.00;99.90
46758;DHT22;32509;47.750;-3.396;2023-08-17T12:14:11;22.10;99.90
46758;DHT22;32509;47.750;-3.396;2023-08-17T12:16:47;22.10;99.90
46758;DHT22;32509;47.750;-3.396;2023-08-17T12:19:14;22.10;99.90
46758;DHT22;32509;47.750;-3.396;2023-08-17T12:21:43;22.00;99.90
46758;DHT22;32509;47.750;-3.396;2023-08-17T12:24:09;22.10;99.90
46758;DHT22;32509;47.750;-3.396;2023-08-17T12:26:41;22.10;99.90
46758;DHT22;32509;47.750;-3.396;2023-08-17T12:29:08;22.10;99.90
46758;DHT22;32509;47.750;-3.396;2023-08-17T12:52:17;21.70;99.90
46758;DHT22;32509;47.750;-3.396;2023-08-17T12:54:43;21.60;99.90
46758;DHT22;32509;47.750;-3.396;2023-08-17T12:57:09;21.50;99.90
46758;DHT22;32509;47.750;-3.396;2023-08-17T12:59:34;21.60;99.90
46758;DHT22;32509;47.750;-3.396;2023-08-17T13:02:00;21.80;99.90
46758;DHT22;32509;47.750;-3.396;2023-08-17T13:04:26;21.90;99.90
46758;DHT22;32509;47.750;-3.396;2023-08-17T13:06:51;22.00;99.90
46758;DHT22;32509;47.750;-3.396;2023-08-17T13:09:18;22.00;99.90
46758;DHT22;32509;47.750;-3.396;2023-08-17T13:11:45;21.90;99.90
46758;DHT22;32509;47.750;-3.396;2023-08-17T13:14:13;22.00;99.90
46758;DHT22;32509;47.750;-3.396;2023-08-17T13:16:39;22.00;99.90
46758;DHT22;32509;47.750;-3.396;2023-08-17T13:19:05;22.00;99.90
46758;DHT22;32509;47.750;-3.396;2023-08-17T13:21:30;21.90;99.90
46758;DHT22;32509;47.750;-3.396;2023-08-17T13:23:56;22.00;99.90
46758;DHT22;32509;47.750;-3.396;2023-08-17T13:26:22;22.00;99.90
46758;DHT22;32509;47.750;-3.396;2023-08-17T13:28:48;22.00;99.90
46758;DHT22;32509;47.750;-3.396;2023-08-17T13:31:14;22.00;99.90
46758;DHT22;32509;47.750;-3.396;2023-08-17T13:33:39;22.00;99.90
46758;DHT22;32509;47.750;-3.396;2023-08-17T13:36:05;22.00;99.90
46758;DHT22;32509;47.750;-3.396;2023-08-17T13:38:31;22.00;99.90
46758;DHT22;32509;47.750;-3.396;2023-08-17T13:40:57;22.00;99.90
46758;DHT22;32509;47.750;-3.396;2023-08-17T13:43:23;22.00;99.90
46758;DHT22;32509;47.750;-3.396;2023-08-17T13:45:49;22.00;99.90
46758;DHT22;32509;47.750;-3.396;2023-08-17T13:48:14;21.90;99.90
46758;DHT22;32509;47.750;-3.396;2023-08-17T13:50:40;21.90;99.90
46758;DHT22;32509;47.750;-3.396;2023-08-17T13:53:06;21.80;99.90
46758;DHT22;32509;47.750;-3.396;2023-08-17T13:55:32;21.80;99.90
46758;DHT22;32509;47.750;-3.396;2023-08-17T13:57:58;21.70;99.90
46758;DHT22;32509;47.750;-3.396;2023-08-17T14:00:25;21.70;99.90
46758;DHT22;32509;47.750;-3.396;2023-08-17T14:02:51;21.70;99.90
46758;DHT22;32509;47.750;-3.396;2023-08-17T14:05:16;21.60;99.90
46758;DHT22;32509;47.750;-3.396;2023-08-17T14:07:42;21.70;99.90
46758;DHT22;32509;47.750;-3.396;2023-08-17T14:10:08;21.80;99.90
46758;DHT22;32509;47.750;-3.396;2023-08-17T14:12:34;21.70;99.90
46758;DHT22;32509;47.750;-3.396;2023-08-17T14:15:00;21.60;99.90
46758;DHT22;32509;47.750;-3.396;2023-08-17T14:17:26;21.60;99.90
46758;DHT22;32509;47.750;-3.396;2023-08-17T14:19:51;21.60;99.90
46758;DHT22;32509;47.750;-3.396;2023-08-17T14:22:17;21.50;99.90
46758;DHT22;32509;47.750;-3.396;2023-08-17T14:24:43;21.50;99.90
46758;DHT22;32509;47.750;-3.396;2023-08-17T14:27:08;21.50;99.90
46758;DHT22;32509;47.750;-3.396;2023-08-17T14:29:34;21.40;99.90
46758;DHT22;32509;47.750;-3.396;2023-08-17T14:32:00;21.50;99.90
46758;DHT22;32509;47.750;-3.396;2023-08-17T14:34:26;21.30;99.90
46758;DHT22;32509;47.750;-3.396;2023-08-17T14:36:51;21.50;99.90
46758;DHT22;32509;47.750;-3.396;2023-08-17T14:39:17;21.50;99.90
46758;DHT22;32509;47.750;-3.396;2023-08-17T14:41:43;21.50;99.90
46758;DHT22;32509;47.750;-3.396;2023-08-17T14:44:09;21.60;99.90
46758;DHT22;32509;47.750;-3.396;2023-08-17T14:46:34;21.70;99.90
46758;DHT22;32509;47.750;-3.396;2023-08-17T14:49:00;21.70;99.90
46758;DHT22;32509;47.750;-3.396;2023-08-17T14:51:28;21.70;99.90
46758;DHT22;32509;47.750;-3.396;2023-08-17T14:53:54;21.70;99.90
46758;DHT22;32509;47.750;-3.396;2023-08-17T14:56:20;21.80;99.90
46758;DHT22;32509;47.750;-3.396;2023-08-17T14:58:46;21.80;99.90
46758;DHT22;32509;47.750;-3.396;2023-08-17T15:01:11;21.80;99.90
46758;DHT22;32509;47.750;-3.396;2023-08-17T15:03:37;21.90;99.90
46758;DHT22;32509;47.750;-3.396;2023-08-17T15:06:08;22.00;99.90
46758;DHT22;32509;47.750;-3.396;2023-08-17T15:08:40;21.90;99.90
46758;DHT22;32509;47.750;-3.396;2023-08-17T15:11:06;22.00;99.90
46758;DHT22;32509;47.750;-3.396;2023-08-17T15:13:31;22.00;99.90
46758;DHT22;32509;47.750;-3.396;2023-08-17T15:15:58;22.00;99.90
46758;DHT22;32509;47.750;-3.396;2023-08-17T15:18:24;21.90;99.90
46758;DHT22;32509;47.750;-3.396;2023-08-17T15:20:50;21.90;99.90
46758;DHT22;32509;47.750;-3.396;2023-08-17T15:23:15;21.90;99.90
46758;DHT22;32509;47.750;-3.396;2023-08-17T15:25:42;21.80;99.90
46758;DHT22;32509;47.750;-3.396;2023-08-17T15:28:07;21.80;99.90
46758;DHT22;32509;47.750;-3.396;2023-08-17T15:30:33;21.90;99.90
46758;DHT22;32509;47.750;-3.396;2023-08-17T15:32:59;21.90;99.90
46758;DHT22;32509;47.750;-3.396;2023-08-17T15:35:25;21.90;99.90
46758;DHT22;32509;47.750;-3.396;2023-08-17T15:37:51;21.90;99.90
46758;DHT22;32509;47.750;-3.396;2023-08-17T15:40:17;21.90;99.90
46758;DHT22;32509;47.750;-3.396;2023-08-17T15:42:43;21.90;99.90